createdAt,value
2022-11-12T00:01:20.729Z,21.52
2022-11-12T00:04:06.911Z,21.52
2022-11-12T00:06:52.142Z,21.52
2022-11-12T00:09:37.462Z,21.52
2022-11-12T00:12:22.640Z,21.53
2022-11-12T00:15:08.300Z,21.53
2022-11-12T00:17:53.645Z,21.53
2022-11-12T00:20:39.117Z,21.54
2022-11-12T00:23:24.375Z,21.54
2022-11-12T00:26:10.466Z,21.54
2022-11-12T00:28:55.797Z,21.54
2022-11-12T00:31:40.974Z,21.54
2022-11-12T00:34:26.265Z,21.55
2022-11-12T00:37:11.634Z,21.50
2022-11-12T00:39:56.750Z,21.54
2022-11-12T00:42:41.938Z,21.53
2022-11-12T00:45:27.059Z,21.54
2022-11-12T00:48:12.510Z,21.52
2022-11-12T00:51:05.831Z,21.53
2022-11-12T00:53:51.087Z,21.54
2022-11-12T00:56:36.198Z,21.53
2022-11-12T00:59:21.409Z,21.55
2022-11-12T01:02:06.560Z,21.53
2022-11-12T01:04:51.788Z,21.53
2022-11-12T01:07:37.060Z,21.54
2022-11-12T01:10:22.551Z,21.54
2022-11-12T01:13:07.864Z,21.54
2022-11-12T01:15:52.839Z,21.54
2022-11-12T01:18:38.685Z,21.54
2022-11-12T01:21:25.627Z,21.52
2022-11-12T01:24:11.717Z,21.55
2022-11-12T01:26:56.803Z,21.54
2022-11-12T01:29:42.101Z,21.54
2022-11-12T01:32:28.077Z,21.53
2022-11-12T01:35:13.393Z,21.53
2022-11-12T01:37:58.607Z,21.53
2022-11-12T01:40:43.816Z,21.52
2022-11-12T01:43:29.088Z,21.53
2022-11-12T01:46:27.686Z,21.53
2022-11-12T01:49:19.215Z,21.51
2022-11-12T01:52:17.255Z,21.53
2022-11-12T01:55:07.425Z,21.53
2022-11-12T01:57:59.647Z,21.53
2022-11-12T02:00:45.594Z,21.52
2022-11-12T02:03:31.959Z,21.52
2022-11-12T02:06:18.487Z,21.52
2022-11-12T02:09:04.299Z,21.43
2022-11-12T02:11:49.484Z,21.53
2022-11-12T02:14:35.052Z,21.52
2022-11-12T02:17:20.852Z,21.52
2022-11-12T02:20:10.562Z,21.51
2022-11-12T02:22:56.007Z,21.50
2022-11-12T02:25:41.242Z,21.51
2022-11-12T02:28:27.882Z,21.51
2022-11-12T02:31:13.595Z,21.51
2022-11-12T02:33:58.903Z,21.50
2022-11-12T02:36:43.828Z,21.50
2022-11-12T02:39:28.989Z,21.49
2022-11-12T02:42:14.272Z,21.49
2022-11-12T02:44:59.380Z,21.49
2022-11-12T02:49:57.907Z,21.49
2022-11-12T02:52:43.356Z,21.49
2022-11-12T02:55:28.587Z,21.49
2022-11-12T02:58:15.987Z,21.49
2022-11-12T03:01:01.335Z,21.49
2022-11-12T03:03:46.618Z,21.48
2022-11-12T03:06:32.025Z,21.38
2022-11-12T03:09:17.371Z,21.48
2022-11-12T03:12:02.630Z,21.47
2022-11-12T03:17:01.320Z,21.47
2022-11-12T03:19:46.251Z,21.45
2022-11-12T03:22:31.512Z,21.46
2022-11-12T03:25:16.748Z,21.46
2022-11-12T03:30:23.488Z,21.45
2022-11-12T03:33:10.966Z,21.45
2022-11-12T03:38:18.274Z,21.44
2022-11-12T03:43:17.671Z,21.43
2022-11-12T03:46:02.753Z,21.41
2022-11-12T03:48:48.092Z,21.41
2022-11-12T03:51:33.146Z,21.41
2022-11-12T03:54:20.050Z,21.37
2022-11-12T03:57:05.528Z,21.41
2022-11-12T03:59:50.658Z,21.40
2022-11-12T04:02:36.350Z,21.40
2022-11-12T04:05:40.200Z,21.39
2022-11-12T04:08:37.691Z,21.38
2022-11-12T04:11:23.403Z,21.37
2022-11-12T04:14:08.722Z,21.36
2022-11-12T04:17:12.584Z,21.37
2022-11-12T04:20:16.835Z,21.36
2022-11-12T04:23:02.804Z,21.34
2022-11-12T04:26:06.800Z,21.35
2022-11-12T04:29:10.652Z,21.35
2022-11-12T04:31:55.895Z,21.34
2022-11-12T04:34:41.289Z,21.34
2022-11-12T04:37:28.959Z,21.34
2022-11-12T04:40:33.784Z,21.34
2022-11-12T04:43:37.675Z,21.33
2022-11-12T04:46:22.954Z,21.31
2022-11-12T04:49:07.950Z,21.31
2022-11-12T04:52:11.386Z,21.32
2022-11-12T04:54:57.706Z,21.31
2022-11-12T04:57:42.874Z,21.31
2022-11-12T05:00:28.216Z,21.28
2022-11-12T05:03:13.312Z,21.31
2022-11-12T05:06:03.297Z,21.22
2022-11-12T05:08:48.624Z,21.29
2022-11-12T05:11:33.764Z,21.30
2022-11-12T05:14:19.032Z,21.29
2022-11-12T05:17:05.118Z,21.29
2022-11-12T05:19:50.101Z,21.29
2022-11-12T05:22:45.569Z,21.28
2022-11-12T05:25:33.149Z,21.28
2022-11-12T05:28:18.500Z,21.27
2022-11-12T05:31:03.895Z,21.27
2022-11-12T05:33:49.090Z,21.27
2022-11-12T05:36:34.537Z,21.25
2022-11-12T05:39:19.787Z,21.26
2022-11-12T05:42:13.092Z,21.26
2022-11-12T05:44:59.283Z,21.24
2022-11-12T05:47:44.540Z,21.25
2022-11-12T05:50:35.017Z,21.24
2022-11-12T05:53:25.326Z,21.23
2022-11-12T05:56:11.995Z,21.22
2022-11-12T05:58:57.744Z,21.22
2022-11-12T06:01:45.801Z,21.21
2022-11-12T06:04:30.708Z,21.19
2022-11-12T06:07:15.838Z,21.19
2022-11-12T06:10:01.048Z,21.17
2022-11-12T06:12:46.382Z,21.14
2022-11-12T06:15:36.505Z,21.15
2022-11-12T06:18:25.009Z,21.15
2022-11-12T06:21:22.869Z,21.14
2022-11-12T06:24:08.002Z,21.13
2022-11-12T06:26:53.187Z,21.11
2022-11-12T06:29:41.417Z,21.12
2022-11-12T06:32:26.512Z,21.12
2022-11-12T06:35:11.772Z,21.11
2022-11-12T06:37:56.910Z,21.13
2022-11-12T06:40:42.832Z,21.16
2022-11-12T06:43:29.707Z,21.21
2022-11-12T06:46:16.741Z,21.22
2022-11-12T06:49:01.810Z,21.21
2022-11-12T06:51:47.159Z,21.13
2022-11-12T06:54:32.404Z,21.18
2022-11-12T06:57:17.752Z,21.17
2022-11-12T07:00:03.570Z,21.14
2022-11-12T07:02:49.160Z,21.12
2022-11-12T07:05:38.614Z,21.08
2022-11-12T07:08:24.293Z,21.14
2022-11-12T07:11:10.098Z,21.09
2022-11-12T07:13:55.450Z,21.10
2022-11-12T07:16:40.675Z,21.10
2022-11-12T07:19:26.347Z,21.07
2022-11-12T07:22:11.151Z,21.07
2022-11-12T07:24:56.068Z,21.06
2022-11-12T07:27:41.227Z,21.04
2022-11-12T07:30:26.363Z,21.04
2022-11-12T07:33:11.539Z,21.05
2022-11-12T07:36:02.870Z,21.04
2022-11-12T07:38:51.943Z,20.60
2022-11-12T07:41:36.959Z,21.03
2022-11-12T07:44:22.073Z,21.04
2022-11-12T07:47:07.160Z,21.04
2022-11-12T07:49:52.487Z,20.81
2022-11-12T07:52:37.799Z,21.08
2022-11-12T07:55:23.098Z,21.09
2022-11-12T07:58:08.354Z,21.10
2022-11-12T08:00:53.969Z,21.11
2022-11-12T08:03:39.806Z,21.11
2022-11-12T08:06:25.712Z,21.10
2022-11-12T08:09:11.257Z,21.10
2022-11-12T08:11:56.359Z,21.10
2022-11-12T08:14:41.352Z,21.10
2022-11-12T08:17:26.441Z,21.11
2022-11-12T08:20:12.927Z,21.00
2022-11-12T08:23:01.125Z,21.12
2022-11-12T08:25:46.203Z,21.12
2022-11-12T08:28:33.382Z,21.13
2022-11-12T08:31:21.303Z,21.11
2022-11-12T08:34:12.453Z,21.13
2022-11-12T08:36:58.106Z,21.13
2022-11-12T08:39:43.446Z,21.12
2022-11-12T08:42:28.839Z,21.13
2022-11-12T08:45:14.275Z,21.13
2022-11-12T08:48:01.287Z,21.06
2022-11-12T08:50:46.538Z,21.16
2022-11-12T08:53:32.033Z,21.17
2022-11-12T08:56:17.533Z,21.17
2022-11-12T08:59:07.177Z,21.19
2022-11-12T09:01:52.571Z,21.21
2022-11-12T09:04:37.817Z,21.22
2022-11-12T09:07:48.805Z,21.24
2022-11-12T09:10:29.497Z,21.25
2022-11-12T09:13:15.358Z,21.27
2022-11-12T09:16:07.688Z,21.30
2022-11-12T09:18:52.871Z,21.32
2022-11-12T09:21:38.510Z,21.34
2022-11-12T09:24:23.687Z,21.24
2022-11-12T09:27:08.689Z,21.37
2022-11-12T09:29:54.076Z,21.40
2022-11-12T09:32:39.279Z,21.39
2022-11-12T09:35:24.503Z,21.41
2022-11-12T09:38:09.716Z,21.44
2022-11-12T09:41:04.043Z,21.45
2022-11-12T09:43:53.936Z,21.14
2022-11-12T09:46:43.423Z,21.47
2022-11-12T09:49:36.023Z,21.49
2022-11-12T09:52:25.938Z,21.48
2022-11-12T09:55:32.445Z,21.49
2022-11-12T09:58:19.189Z,21.49
2022-11-12T10:01:18.514Z,21.49
2022-11-12T10:04:28.434Z,21.50
2022-11-12T10:07:38.614Z,21.50
2022-11-12T10:10:46.163Z,21.49
2022-11-12T10:13:58.884Z,21.51
2022-11-12T10:16:50.135Z,21.50
2022-11-12T10:19:54.448Z,21.49
2022-11-12T10:22:59.787Z,21.49
2022-11-12T10:25:48.604Z,21.49
2022-11-12T10:28:41.244Z,21.50
2022-11-12T10:31:26.604Z,21.49
2022-11-12T10:34:15.960Z,21.50
2022-11-12T10:37:12.022Z,21.53
2022-11-12T10:39:57.438Z,21.53
2022-11-12T10:43:04.280Z,21.55
2022-11-12T10:45:50.638Z,21.55
2022-11-12T10:48:36.634Z,21.56
2022-11-12T10:51:31.748Z,21.57
2022-11-12T10:54:26.584Z,21.57
2022-11-12T10:57:26.207Z,21.57
2022-11-12T11:00:14.453Z,21.57
2022-11-12T11:03:02.868Z,21.57
2022-11-12T11:05:59.426Z,21.50
2022-11-12T11:08:50.483Z,21.58
2022-11-12T11:11:35.740Z,21.59
2022-11-12T11:14:33.108Z,21.58
2022-11-12T11:17:18.976Z,21.59
2022-11-12T11:20:09.184Z,21.60
2022-11-12T11:23:02.429Z,21.60
2022-11-12T11:25:52.283Z,21.56
2022-11-12T11:29:25.559Z,21.64
2022-11-12T11:32:16.643Z,21.65
2022-11-12T11:35:38.831Z,21.65
2022-11-12T11:38:42.099Z,21.65
2022-11-12T11:41:48.895Z,21.66
2022-11-12T11:45:03.923Z,21.64
2022-11-12T11:48:02.664Z,21.67
2022-11-12T11:50:57.196Z,21.68
2022-11-12T11:53:51.214Z,21.69
2022-11-12T11:56:43.033Z,21.69
2022-11-12T11:59:40.920Z,21.69
2022-11-12T12:03:00.189Z,21.68
2022-11-12T12:06:10.897Z,21.68
2022-11-12T12:09:22.840Z,21.69
2022-11-12T12:12:32.174Z,21.68
2022-11-12T12:15:46.098Z,21.69
2022-11-12T12:18:45.377Z,21.69
2022-11-12T12:21:32.191Z,21.70
2022-11-12T12:24:31.224Z,21.70
2022-11-12T12:27:24.716Z,21.70
2022-11-12T12:30:25.030Z,21.71
2022-11-12T12:33:33.291Z,21.72
2022-11-12T12:36:41.340Z,21.72
2022-11-12T12:39:35.859Z,21.72
2022-11-12T12:42:37.281Z,21.72
2022-11-12T12:45:39.502Z,21.72
2022-11-12T12:48:38.199Z,21.73
2022-11-12T12:51:24.460Z,21.73
2022-11-12T12:54:34.586Z,21.73
2022-11-12T12:57:36.632Z,21.73
2022-11-12T13:00:39.638Z,21.73
2022-11-12T13:03:53.402Z,21.73
2022-11-12T13:06:45.899Z,21.73
2022-11-12T13:12:05.470Z,21.76
2022-11-12T13:14:53.538Z,21.75
2022-11-12T13:17:48.122Z,21.76
2022-11-12T13:20:36.674Z,21.77
2022-11-12T13:24:06.969Z,21.77
2022-11-12T13:26:53.630Z,21.77
2022-11-12T13:29:41.149Z,21.77
2022-11-12T13:32:35.836Z,21.77
2022-11-12T13:35:20.934Z,21.78
2022-11-12T13:38:09.223Z,21.78
2022-11-12T13:41:16.204Z,21.78
2022-11-12T13:44:06.151Z,21.78
2022-11-12T13:46:52.655Z,21.78
2022-11-12T13:49:38.168Z,21.76
2022-11-12T13:52:24.231Z,21.77
2022-11-12T13:55:18.302Z,21.78
2022-11-12T13:58:03.439Z,21.79
2022-11-12T14:01:00.462Z,21.79
2022-11-12T14:03:49.154Z,21.79
2022-11-12T14:06:39.032Z,21.75
2022-11-12T14:10:01.325Z,21.79
2022-11-12T14:13:18.978Z,21.79
2022-11-12T14:16:34.153Z,21.78
2022-11-12T14:19:29.088Z,21.79
2022-11-12T14:22:17.531Z,21.78
2022-11-12T14:25:03.559Z,21.74
2022-11-12T14:28:12.798Z,21.79
2022-11-12T14:31:00.297Z,21.78
2022-11-12T14:33:45.493Z,21.77
2022-11-12T14:36:30.928Z,21.79
2022-11-12T14:39:20.187Z,21.77
2022-11-12T14:42:05.672Z,21.77
2022-11-12T14:44:51.173Z,21.76
2022-11-12T14:47:36.044Z,21.75
2022-11-12T14:50:30.179Z,21.74
2022-11-12T14:53:25.228Z,21.72
2022-11-12T14:56:26.682Z,21.71
2022-11-12T14:59:16.372Z,21.71
2022-11-12T15:02:31.343Z,21.66
2022-11-12T15:05:21.208Z,21.72
2022-11-12T15:08:11.585Z,21.70
2022-11-12T15:11:18.764Z,21.71
2022-11-12T15:14:06.446Z,21.72
2022-11-12T15:16:53.115Z,21.72
2022-11-12T15:19:42.372Z,21.72
2022-11-12T15:22:27.812Z,21.72
2022-11-12T15:25:23.489Z,21.75
2022-11-12T15:28:22.635Z,21.76
2022-11-12T15:31:17.692Z,21.75
2022-11-12T15:34:27.628Z,21.75
2022-11-12T15:37:18.488Z,21.75
2022-11-12T15:40:14.731Z,21.75
2022-11-12T15:43:02.109Z,21.76
2022-11-12T15:45:52.622Z,21.76
2022-11-12T15:48:38.107Z,21.76
2022-11-12T15:51:23.535Z,21.76
2022-11-12T15:54:08.920Z,21.74
2022-11-12T15:56:54.942Z,21.78
2022-11-12T15:59:40.990Z,21.74
2022-11-12T16:02:26.720Z,21.79
2022-11-12T16:05:14.099Z,21.79
2022-11-12T16:07:59.716Z,21.79
2022-11-12T16:10:46.443Z,21.80
2022-11-12T16:13:36.053Z,21.79
2022-11-12T16:16:21.354Z,21.79
2022-11-12T16:19:14.326Z,21.80
2022-11-12T16:22:01.460Z,21.81
2022-11-12T16:24:46.423Z,21.79
2022-11-12T16:29:57.921Z,21.81
2022-11-12T16:32:43.730Z,21.81
2022-11-12T16:35:33.148Z,21.69
2022-11-12T16:38:18.151Z,21.81
2022-11-12T16:41:03.608Z,21.81
2022-11-12T16:43:51.952Z,21.81
2022-11-12T16:46:41.879Z,21.80
2022-11-12T16:49:27.482Z,21.83
2022-11-12T16:52:12.872Z,21.83
2022-11-12T16:55:04.140Z,21.83
2022-11-12T16:57:50.039Z,21.82
2022-11-12T17:00:35.431Z,21.82
2022-11-12T17:03:20.947Z,21.81
2022-11-12T17:06:06.501Z,21.81
2022-11-12T17:08:54.919Z,21.82
2022-11-12T17:11:40.230Z,21.81
2022-11-12T17:14:28.390Z,21.80
2022-11-12T17:17:13.895Z,21.80
2022-11-12T17:19:59.220Z,21.79
2022-11-12T17:22:45.005Z,21.80
2022-11-12T17:25:29.951Z,21.70
2022-11-12T17:28:15.396Z,21.79
2022-11-12T17:31:06.056Z,21.78
2022-11-12T17:33:52.983Z,21.79
2022-11-12T17:36:43.310Z,21.79
2022-11-12T17:39:28.815Z,21.79
2022-11-12T17:42:14.166Z,21.78
2022-11-12T17:44:59.431Z,21.78
2022-11-12T17:47:44.831Z,21.79
2022-11-12T17:50:30.076Z,21.79
2022-11-12T17:53:15.972Z,21.80
2022-11-12T17:56:01.808Z,21.80
2022-11-12T17:58:49.034Z,21.76
2022-11-12T18:01:35.067Z,21.76
2022-11-12T18:04:22.439Z,21.78
2022-11-12T18:07:09.244Z,21.76
2022-11-12T18:09:54.982Z,21.77
2022-11-12T18:12:40.666Z,21.76
2022-11-12T18:15:26.159Z,21.75
2022-11-12T18:18:11.405Z,21.74
2022-11-12T18:20:56.746Z,21.66
2022-11-12T18:23:44.014Z,21.74
2022-11-12T18:26:28.987Z,21.73
2022-11-12T18:29:14.236Z,21.73
2022-11-12T18:31:59.586Z,21.74
2022-11-12T18:34:45.182Z,21.72
2022-11-12T18:37:30.179Z,21.71
2022-11-12T18:40:15.950Z,21.70
2022-11-12T18:43:01.446Z,21.70
2022-11-12T18:45:54.520Z,21.71
2022-11-12T18:48:40.430Z,21.71
2022-11-12T18:51:26.076Z,21.71
2022-11-12T18:54:11.595Z,21.71
2022-11-12T18:56:56.711Z,21.73
2022-11-12T18:59:41.991Z,21.73
2022-11-12T19:02:27.406Z,21.73
2022-11-12T19:05:12.703Z,21.76
2022-11-12T19:07:58.345Z,21.77
2022-11-12T19:10:43.455Z,21.77
2022-11-12T19:13:30.047Z,21.77
2022-11-12T19:16:19.504Z,21.78
2022-11-12T19:19:04.583Z,21.78
2022-11-12T19:21:50.110Z,21.78
2022-11-12T19:24:37.574Z,21.77
2022-11-12T19:27:23.236Z,21.80
2022-11-12T19:30:09.467Z,21.79
2022-11-12T19:32:54.500Z,21.80
2022-11-12T19:35:40.682Z,21.71
2022-11-12T19:38:26.160Z,21.80
2022-11-12T19:41:19.084Z,21.82
2022-11-12T19:44:04.879Z,21.80
2022-11-12T19:46:50.133Z,21.82
2022-11-12T19:49:35.476Z,21.83
2022-11-12T19:52:21.948Z,21.83
2022-11-12T19:55:07.729Z,21.84
2022-11-12T19:57:52.641Z,21.84
2022-11-12T20:00:38.031Z,21.85
2022-11-12T20:03:25.071Z,21.85
2022-11-12T20:06:11.435Z,21.87
2022-11-12T20:09:03.872Z,21.87
2022-11-12T20:11:53.706Z,21.87
2022-11-12T20:14:38.978Z,21.88
2022-11-12T20:17:24.495Z,21.89
2022-11-12T20:20:10.397Z,21.89
2022-11-12T20:22:55.866Z,21.89
2022-11-12T20:25:41.047Z,21.89
2022-11-12T20:28:26.360Z,21.89
2022-11-12T20:31:20.313Z,21.89
2022-11-12T20:34:05.616Z,21.89
2022-11-12T20:36:50.843Z,21.90
2022-11-12T20:39:35.984Z,21.91
2022-11-12T20:42:21.229Z,21.90
2022-11-12T20:45:06.797Z,21.90
2022-11-12T20:47:51.676Z,21.92
2022-11-12T20:50:37.255Z,21.92
2022-11-12T20:53:22.497Z,21.92
2022-11-12T20:56:13.665Z,21.87
2022-11-12T20:58:59.237Z,21.83
2022-11-12T21:01:44.801Z,21.92
2022-11-12T21:04:30.244Z,21.92
2022-11-12T21:07:15.513Z,21.94
2022-11-12T21:10:00.630Z,21.93
2022-11-12T21:12:46.036Z,21.93
2022-11-12T21:15:31.519Z,21.93
2022-11-12T21:18:17.623Z,21.94
2022-11-12T21:21:09.488Z,21.94
2022-11-12T21:23:54.911Z,21.95
2022-11-12T21:26:40.383Z,21.95
2022-11-12T21:29:25.723Z,21.95
2022-11-12T21:32:10.987Z,21.96
2022-11-12T21:34:56.689Z,21.95
2022-11-12T21:37:41.972Z,21.95
2022-11-12T21:40:27.124Z,21.96
2022-11-12T21:43:12.362Z,21.95
2022-11-12T21:45:57.883Z,21.90
2022-11-12T21:48:44.184Z,21.86
2022-11-12T21:51:31.665Z,21.96
2022-11-12T21:54:16.591Z,21.97
2022-11-12T21:57:01.881Z,21.96
2022-11-12T21:59:47.151Z,21.96
2022-11-12T22:02:32.549Z,21.96
2022-11-12T22:05:17.923Z,21.96
2022-11-12T22:08:03.095Z,21.97
2022-11-12T22:10:48.362Z,21.96
2022-11-12T22:13:34.304Z,21.96
2022-11-12T22:16:24.854Z,21.96
2022-11-12T22:19:11.289Z,21.97
2022-11-12T22:21:56.551Z,21.97
2022-11-12T22:24:41.877Z,21.98
2022-11-12T22:29:53.563Z,21.97
2022-11-12T22:32:38.821Z,21.98
2022-11-12T22:35:23.932Z,21.97
2022-11-12T22:38:09.228Z,21.97
2022-11-12T22:41:01.064Z,21.97
2022-11-12T22:43:51.353Z,21.95
2022-11-12T22:46:36.686Z,21.89
2022-11-12T22:49:21.844Z,21.97
2022-11-12T22:52:07.064Z,21.97
2022-11-12T22:54:52.292Z,21.98
2022-11-12T22:57:37.354Z,21.98
2022-11-12T23:00:31.848Z,21.99
2022-11-12T23:03:17.195Z,21.98
2022-11-12T23:06:05.703Z,21.98
2022-11-12T23:08:52.861Z,21.97
2022-11-12T23:11:38.372Z,21.99
2022-11-12T23:14:23.642Z,21.98
2022-11-12T23:17:08.763Z,21.93
2022-11-12T23:19:54.610Z,22.00
2022-11-12T23:22:40.293Z,21.99
2022-11-12T23:25:25.637Z,21.88
2022-11-12T23:28:11.151Z,21.98
2022-11-12T23:30:56.378Z,21.99
2022-11-12T23:33:45.751Z,21.99
2022-11-12T23:36:31.647Z,21.99
2022-11-12T23:39:16.671Z,21.99
2022-11-12T23:42:01.759Z,21.99
2022-11-12T23:44:46.956Z,21.99
2022-11-12T23:47:31.906Z,21.99
2022-11-12T23:50:17.385Z,21.99
2022-11-12T23:53:02.637Z,21.99
2022-11-12T23:55:47.942Z,21.99
2022-11-12T23:58:33.471Z,21.99
